Impacts TAF Board INFO
FOR SITUATIONAL AWARENESS. NOT TO BE USED FOR FLIGHT PLANNING PURPOSES.
IDs:

KPHX - Phoenix/Sky Harbor, AZ, US

Issued at 0206 UTC 15 Dec 2017
Updated at 0246 UTC 15 Dec 2017
Potential Impact None Slight Moderate High
Time0151Z 15/03Z 15/04Z 15/05Z 15/06Z 15/07Z 15/08Z 15/09Z 15/10Z 15/11Z 15/12Z 15/13Z 15/14Z 15/15Z>>
Type OBS PRVL PRVL PRVL PRVL PRVL PRVL PRVL PRVL PRVL PRVL PRVL PRVL PRVL
VIS 10 >6 >6 >6 >6 >6 >6 >6 >6 >6 >6 >6 >6 >6
CIG -- -- -- -- -- -- -- -- -- -- -- -- -- --
Cover CLR SKC SKC SKC SKC SKC SKC SKC SKC SKC SKC SKC SKC SKC
FltCat VFR VFR VFR VFR VFR VFR VFR VFR VFR VFR VFR VFR VFR VFR
WX -- -- -- -- -- -- -- -- -- -- -- -- -- --
WDir 40 20 60 60 60 60 60 60 60 60 60 60 60 60
WSpd 14 12 8 8 8 8 8 8 8 8 8 8 8 8
WGst -- -- -- -- -- -- -- -- -- -- -- -- -- --

Raw TAF
KPHX 150206Z 1502/1606 02012KT P6SM SKC
  FM150400 06008KT P6SM SKC


Raw METAR
KPHX 150151Z 04014KT 10SM CLR 21/M05 A3000 RMK AO2 SLP152 T02061050
KPHX 150051Z 30005KT 10SM CLR 21/M04 A2998 RMK AO2 SLP144 T02061044
KPHX 142351Z 31005KT 10SM CLR 22/M06 A2995 RMK AO2 SLP133 T02221061 10233 20156 53008

METAR Board
Radar Display
Forecast Discussion

FOR SITUATIONAL AWARENESS. NOT TO BE USED FOR FLIGHT PLANNING PURPOSES.